Winterport, Maine
Current Conditions -  °F | °C
As of 4:53 PM on Monday 26 Jan 2015 (Local Time) from KBGR Reporting Station
Overcast Overcast  
Wind Chill:   Ceiling: 20000
Heat Index: 12°   Visibility: 10mi
Dew Point: -4°   Wind: 6mph
Humidity: 49%   Direction: 20°NNE
Pressure: 30.22"   Gusts: NA
Location:  44.65°N, 68.86°W
Report Text: KBGR 262153Z 02005KT 10SM FEW120 OVC200 M11/M20 A3022 RMK AO2 SLP239 BINOVC NW T11111200
Loading
Personal Weather Stations






























Interactive Weather Map New forecast layout! Learn more

10-Day Weather Forecast

Advertisements
Track Severe Weather on mobile